createdAt,value
2023-02-09T00:01:20.386Z,73.65
2023-02-09T00:03:46.807Z,73.59
2023-02-09T00:06:13.096Z,73.39
2023-02-09T00:08:39.471Z,73.61
2023-02-09T00:11:05.897Z,74.15
2023-02-09T00:13:32.278Z,74.32
2023-02-09T00:15:58.765Z,74.04
2023-02-09T00:18:25.116Z,74.00
2023-02-09T00:20:51.461Z,73.90
2023-02-09T00:23:17.798Z,73.92
2023-02-09T00:25:44.218Z,74.10
2023-02-09T00:28:10.587Z,74.17
2023-02-09T00:30:36.980Z,74.19
2023-02-09T00:33:03.301Z,74.41
2023-02-09T00:35:29.648Z,74.59
2023-02-09T00:37:56.040Z,74.62
2023-02-09T00:40:22.364Z,74.99
2023-02-09T00:42:48.705Z,74.92
2023-02-09T00:45:15.146Z,75.20
2023-02-09T00:47:41.487Z,75.45
2023-02-09T00:50:07.815Z,75.67
2023-02-09T00:52:34.170Z,75.87
2023-02-09T00:55:00.526Z,75.58
2023-02-09T00:57:26.865Z,75.50
2023-02-09T00:59:53.248Z,75.48
2023-02-09T01:02:19.580Z,75.85
2023-02-09T01:04:45.984Z,76.08
2023-02-09T01:07:12.291Z,76.32
2023-02-09T01:09:38.675Z,76.38
2023-02-09T01:12:05.032Z,76.24
2023-02-09T01:14:31.386Z,76.30
2023-02-09T01:16:57.781Z,76.71
2023-02-09T01:19:24.072Z,77.13
2023-02-09T01:21:50.483Z,77.49
2023-02-09T01:24:16.799Z,76.98
2023-02-09T01:26:43.184Z,76.67
2023-02-09T01:29:09.758Z,76.19
2023-02-09T01:31:36.280Z,76.07
2023-02-09T01:34:02.450Z,76.10
2023-02-09T01:36:28.937Z,76.14
2023-02-09T01:38:55.264Z,76.31
2023-02-09T01:41:21.649Z,76.56
2023-02-09T01:43:48.015Z,76.84
2023-02-09T01:46:14.528Z,77.09
2023-02-09T01:48:40.739Z,77.54
2023-02-09T01:51:07.117Z,78.10
2023-02-09T01:53:33.508Z,78.38
2023-02-09T01:55:59.808Z,79.39
2023-02-09T01:58:26.218Z,80.11
2023-02-09T02:00:52.575Z,80.35
2023-02-09T02:03:18.941Z,80.66
2023-02-09T02:05:45.309Z,81.10
2023-02-09T02:08:11.705Z,81.28
2023-02-09T02:10:38.030Z,81.54
2023-02-09T02:13:04.399Z,81.66
2023-02-09T02:15:30.765Z,81.62
2023-02-09T02:17:57.089Z,81.70
2023-02-09T02:20:23.453Z,81.88
2023-02-09T02:22:49.793Z,82.04
2023-02-09T02:25:16.178Z,82.35
2023-02-09T02:27:42.502Z,82.26
2023-02-09T02:30:08.879Z,82.17
2023-02-09T02:32:35.205Z,82.08
2023-02-09T02:35:01.568Z,81.79
2023-02-09T02:37:27.911Z,81.62
2023-02-09T02:39:54.289Z,82.00
2023-02-09T02:42:20.636Z,82.16
2023-02-09T02:44:46.998Z,82.25
2023-02-09T02:47:13.358Z,82.42
2023-02-09T02:49:39.743Z,82.68
2023-02-09T02:52:06.105Z,82.82
2023-02-09T02:54:32.483Z,82.97
2023-02-09T02:56:58.839Z,82.95
2023-02-09T02:59:25.184Z,83.05
2023-02-09T03:01:51.575Z,82.97
2023-02-09T03:04:17.864Z,83.04
2023-02-09T03:06:44.268Z,83.05
2023-02-09T03:09:10.582Z,83.03
2023-02-09T03:11:36.969Z,83.12
2023-02-09T03:14:03.362Z,82.98
2023-02-09T03:16:29.725Z,82.74
2023-02-09T03:18:56.055Z,82.80
2023-02-09T03:21:22.366Z,82.77
2023-02-09T03:23:48.786Z,82.89
2023-02-09T03:26:15.102Z,82.76
2023-02-09T03:28:41.461Z,82.62
2023-02-09T03:31:07.945Z,82.71
2023-02-09T03:33:34.209Z,82.62
2023-02-09T03:36:00.545Z,82.54
2023-02-09T03:38:26.906Z,82.36
2023-02-09T03:40:53.310Z,82.28
2023-02-09T03:43:19.660Z,82.06
2023-02-09T03:45:46.010Z,81.98
2023-02-09T03:48:12.442Z,81.97
2023-02-09T03:50:38.794Z,81.89
2023-02-09T03:53:05.172Z,81.89
2023-02-09T03:55:31.526Z,82.09
2023-02-09T03:57:57.887Z,82.01
2023-02-09T04:00:24.197Z,81.83
2023-02-09T04:02:50.655Z,81.75
2023-02-09T04:05:16.889Z,81.44
2023-02-09T04:07:43.228Z,81.49
2023-02-09T04:10:09.599Z,81.72
2023-02-09T04:12:35.940Z,82.17
2023-02-09T04:15:02.257Z,82.17
2023-02-09T04:17:28.689Z,82.11
2023-02-09T04:19:55.010Z,81.86
2023-02-09T04:22:21.367Z,81.78
2023-02-09T04:24:47.735Z,81.78
2023-02-09T04:27:14.093Z,81.82
2023-02-09T04:29:40.407Z,81.75
2023-02-09T04:32:06.997Z,81.75
2023-02-09T04:34:33.201Z,81.95
2023-02-09T04:36:59.586Z,82.20
2023-02-09T04:39:25.951Z,82.09
2023-02-09T04:41:52.324Z,82.00
2023-02-09T04:44:18.698Z,81.92
2023-02-09T04:46:45.798Z,81.94
2023-02-09T04:49:11.467Z,81.71
2023-02-09T04:51:37.804Z,81.69
2023-02-09T04:54:04.146Z,81.74
2023-02-09T04:56:30.524Z,81.74
2023-02-09T04:58:56.877Z,81.88
2023-02-09T05:01:23.557Z,81.95
2023-02-09T05:03:49.932Z,81.80
2023-02-09T05:06:16.252Z,81.75
2023-02-09T05:08:42.610Z,81.92
2023-02-09T05:11:08.985Z,81.94
2023-02-09T05:13:35.381Z,81.79
2023-02-09T05:16:01.726Z,81.93
2023-02-09T05:18:28.331Z,81.78
2023-02-09T05:20:54.675Z,81.67
2023-02-09T05:23:20.985Z,81.96
2023-02-09T05:25:47.402Z,81.99
2023-02-09T05:28:13.785Z,82.08
2023-02-09T05:30:40.144Z,82.40
2023-02-09T05:33:06.566Z,82.51
2023-02-09T05:35:32.926Z,82.56
2023-02-09T05:37:59.237Z,82.57
2023-02-09T05:40:25.622Z,82.52
2023-02-09T05:42:51.931Z,82.27
2023-02-09T05:45:18.326Z,82.29
2023-02-09T05:47:44.675Z,82.26
2023-02-09T05:50:11.078Z,82.00
2023-02-09T05:52:37.493Z,81.46
2023-02-09T05:55:03.808Z,81.02
2023-02-09T05:57:30.197Z,80.36
2023-02-09T05:59:56.543Z,79.94
2023-02-09T06:02:22.979Z,79.40
2023-02-09T06:04:49.296Z,79.10
2023-02-09T06:07:15.707Z,78.26
2023-02-09T06:09:42.029Z,76.90
2023-02-09T06:12:08.369Z,75.31
2023-02-09T06:14:34.924Z,73.81
2023-02-09T06:17:01.305Z,73.46
2023-02-09T06:19:27.657Z,73.03
2023-02-09T06:21:54.041Z,71.80
2023-02-09T06:24:20.362Z,71.34
2023-02-09T06:26:46.736Z,70.66
2023-02-09T06:29:13.138Z,69.76
2023-02-09T06:31:39.552Z,68.66
2023-02-09T06:34:05.916Z,68.31
2023-02-09T06:36:32.357Z,67.79
2023-02-09T06:38:58.662Z,66.35
2023-02-09T06:41:25.297Z,66.79
2023-02-09T06:43:51.718Z,65.13
2023-02-09T06:46:18.155Z,64.85
2023-02-09T06:48:44.425Z,63.80
2023-02-09T06:51:10.863Z,63.34
2023-02-09T06:53:37.197Z,62.76
2023-02-09T06:56:03.638Z,62.02
2023-02-09T06:58:30.008Z,61.32
2023-02-09T07:00:56.342Z,60.85
2023-02-09T07:03:22.706Z,60.06
2023-02-09T07:05:49.154Z,59.79
2023-02-09T07:08:15.672Z,58.21
2023-02-09T07:10:42.053Z,58.76
2023-02-09T07:13:08.579Z,58.21
2023-02-09T07:15:34.932Z,60.46
2023-02-09T07:18:01.266Z,60.28
2023-02-09T07:20:27.659Z,58.24
2023-02-09T07:22:54.018Z,57.61
2023-02-09T07:25:20.478Z,56.60
2023-02-09T07:27:46.768Z,56.17
2023-02-09T07:30:13.189Z,55.95
2023-02-09T07:32:39.534Z,55.76
2023-02-09T07:35:05.932Z,56.90
2023-02-09T07:37:32.324Z,56.66
2023-02-09T07:39:58.715Z,54.53
2023-02-09T07:42:25.111Z,54.17
2023-02-09T07:44:51.505Z,54.48
2023-02-09T07:47:17.833Z,54.74
2023-02-09T07:49:44.288Z,55.09
2023-02-09T07:52:10.909Z,52.77
2023-02-09T07:54:37.349Z,51.46
2023-02-09T07:57:03.671Z,53.01
2023-02-09T07:59:30.021Z,53.07
2023-02-09T08:01:56.559Z,52.80
2023-02-09T08:04:22.989Z,51.25
2023-02-09T08:06:49.319Z,50.86
2023-02-09T08:09:15.715Z,52.98
2023-02-09T08:11:43.950Z,53.39
2023-02-09T08:14:08.614Z,52.47
2023-02-09T08:16:35.053Z,51.38
2023-02-09T08:19:01.416Z,50.74
2023-02-09T08:21:27.747Z,49.88
2023-02-09T08:23:54.126Z,49.11
2023-02-09T08:26:20.447Z,49.49
2023-02-09T08:28:46.992Z,48.94
2023-02-09T08:31:13.190Z,49.19
2023-02-09T08:33:39.975Z,48.31
2023-02-09T08:36:06.304Z,47.87
2023-02-09T08:38:32.703Z,47.61
2023-02-09T08:40:59.070Z,47.22
2023-02-09T08:43:25.412Z,46.62
2023-02-09T08:45:52.296Z,45.93
2023-02-09T08:48:18.368Z,47.25
2023-02-09T08:50:44.797Z,45.96
2023-02-09T08:53:11.201Z,47.26
2023-02-09T08:55:37.513Z,47.95
2023-02-09T08:58:03.892Z,47.22
2023-02-09T09:00:30.191Z,46.68
2023-02-09T09:02:56.795Z,45.43
2023-02-09T09:05:23.198Z,46.15
2023-02-09T09:07:49.528Z,45.41
2023-02-09T09:10:15.895Z,44.80
2023-02-09T09:12:42.232Z,45.25
2023-02-09T09:15:11.741Z,45.13
2023-02-09T09:17:38.129Z,45.32
2023-02-09T09:20:04.778Z,43.80
2023-02-09T09:22:31.211Z,44.03
2023-02-09T09:24:57.552Z,43.78
2023-02-09T09:27:26.106Z,44.50
2023-02-09T09:29:50.288Z,44.32
2023-02-09T09:32:16.722Z,43.59
2023-02-09T09:34:42.980Z,44.50
2023-02-09T09:37:09.372Z,43.40
2023-02-09T09:39:35.708Z,42.72
2023-02-09T09:42:02.101Z,43.07
2023-02-09T09:44:28.464Z,42.09
2023-02-09T09:46:54.861Z,42.31
2023-02-09T09:49:21.739Z,40.87
2023-02-09T09:51:48.100Z,41.02
2023-02-09T09:54:14.425Z,40.75
2023-02-09T09:56:40.811Z,40.87
2023-02-09T09:59:07.280Z,41.19
2023-02-09T10:01:33.694Z,40.75
2023-02-09T10:03:59.995Z,40.83
2023-02-09T10:06:26.605Z,40.48
2023-02-09T10:08:52.927Z,41.54
2023-02-09T10:11:19.268Z,41.81
2023-02-09T10:13:46.834Z,41.55
2023-02-09T10:16:13.169Z,40.43
2023-02-09T10:18:39.586Z,39.86
2023-02-09T10:21:06.401Z,39.71
2023-02-09T10:23:32.798Z,38.96
2023-02-09T10:25:59.161Z,37.89
2023-02-09T10:28:25.558Z,37.58
2023-02-09T10:30:51.952Z,36.96
2023-02-09T10:33:18.265Z,37.56
2023-02-09T10:35:45.063Z,37.83
2023-02-09T10:38:11.067Z,36.54
2023-02-09T10:40:37.492Z,35.17
2023-02-09T10:43:03.847Z,36.00
2023-02-09T10:45:30.197Z,36.16
2023-02-09T10:47:56.607Z,35.43
2023-02-09T10:50:22.946Z,36.08
2023-02-09T10:52:49.287Z,36.16
2023-02-09T10:55:15.662Z,34.49
2023-02-09T10:57:42.084Z,35.02
2023-02-09T11:00:08.466Z,35.05
2023-02-09T11:02:34.802Z,35.01
2023-02-09T11:05:01.164Z,36.54
2023-02-09T11:07:27.500Z,35.85
2023-02-09T11:09:54.021Z,36.45
2023-02-09T11:12:20.348Z,36.21
2023-02-09T11:14:46.732Z,36.33
2023-02-09T11:17:13.092Z,36.87
2023-02-09T11:19:39.518Z,36.72
2023-02-09T11:22:05.914Z,36.18
2023-02-09T11:24:32.245Z,35.84
2023-02-09T11:27:00.732Z,35.51
2023-02-09T11:29:27.063Z,35.15
2023-02-09T11:31:53.837Z,35.44
2023-02-09T11:34:20.123Z,35.32
2023-02-09T11:36:46.442Z,35.28
2023-02-09T11:39:12.934Z,36.07
2023-02-09T11:41:39.361Z,35.47
2023-02-09T11:44:05.647Z,34.37
2023-02-09T11:46:32.022Z,34.95
2023-02-09T11:48:58.330Z,34.31
2023-02-09T11:51:24.761Z,34.93
2023-02-09T11:53:51.112Z,34.75
2023-02-09T11:56:17.431Z,35.12
2023-02-09T11:58:43.957Z,35.27
2023-02-09T12:01:15.898Z,35.27
2023-02-09T12:03:36.684Z,34.66
2023-02-09T12:06:03.076Z,34.20
2023-02-09T12:08:29.473Z,34.71
2023-02-09T12:10:55.829Z,35.18
2023-02-09T12:13:22.203Z,35.49
2023-02-09T12:15:48.728Z,36.63
2023-02-09T12:18:15.128Z,35.34
2023-02-09T12:20:42.605Z,35.65
2023-02-09T12:23:08.959Z,35.40
2023-02-09T12:25:35.313Z,35.45
2023-02-09T12:28:01.872Z,36.48
2023-02-09T12:30:28.144Z,35.70
2023-02-09T12:32:54.525Z,34.73
2023-02-09T12:35:20.934Z,34.39
2023-02-09T12:37:47.319Z,34.61
2023-02-09T12:40:13.753Z,35.37
2023-02-09T12:42:40.086Z,34.69
2023-02-09T12:45:06.564Z,35.76
2023-02-09T12:47:32.917Z,35.33
2023-02-09T12:49:59.238Z,35.24
2023-02-09T12:52:25.813Z,34.34
2023-02-09T12:54:52.171Z,35.11
2023-02-09T12:57:18.517Z,34.34
2023-02-09T12:59:45.096Z,35.18
2023-02-09T13:02:11.462Z,34.63
2023-02-09T13:04:37.893Z,35.48
2023-02-09T13:07:04.557Z,35.18
2023-02-09T13:09:30.897Z,35.84
2023-02-09T13:11:57.248Z,35.11
2023-02-09T13:14:23.631Z,34.80
2023-02-09T13:16:50.078Z,34.40
2023-02-09T13:19:16.427Z,34.97
2023-02-09T13:21:42.772Z,33.97
2023-02-09T13:24:09.124Z,34.73
2023-02-09T13:26:35.477Z,35.34
2023-02-09T13:29:11.634Z,35.23
2023-02-09T13:31:28.498Z,35.89
2023-02-09T13:33:54.783Z,35.15
2023-02-09T13:36:24.979Z,35.74
2023-02-09T13:38:47.675Z,35.46
2023-02-09T13:41:14.549Z,36.30
2023-02-09T13:43:41.099Z,36.68
2023-02-09T13:46:07.464Z,36.22
2023-02-09T13:48:33.810Z,36.44
2023-02-09T13:51:00.277Z,36.59
2023-02-09T13:53:26.591Z,36.67
2023-02-09T13:55:53.032Z,37.59
2023-02-09T13:58:19.363Z,38.54
2023-02-09T14:00:45.791Z,38.72
2023-02-09T14:03:12.683Z,39.20
2023-02-09T14:05:38.912Z,39.36
2023-02-09T14:08:05.228Z,39.44
2023-02-09T14:10:31.568Z,39.16
2023-02-09T14:12:57.938Z,39.76
2023-02-09T14:15:24.722Z,40.06
2023-02-09T14:17:51.418Z,40.31
2023-02-09T14:20:17.760Z,40.59
2023-02-09T14:22:44.122Z,40.74
2023-02-09T14:25:10.525Z,40.97
2023-02-09T14:27:36.888Z,41.74
2023-02-09T14:30:03.336Z,42.26
2023-02-09T14:32:33.099Z,44.00
2023-02-09T14:34:56.022Z,45.21
2023-02-09T14:37:22.401Z,46.30
2023-02-09T14:39:48.758Z,46.26
2023-02-09T14:42:15.403Z,46.60
2023-02-09T14:44:41.814Z,47.21
2023-02-09T14:47:08.158Z,47.93
2023-02-09T14:49:34.828Z,47.92
2023-02-09T14:52:01.969Z,48.70
2023-02-09T14:54:28.329Z,48.99
2023-02-09T14:56:58.490Z,49.51
2023-02-09T14:59:23.527Z,49.81
2023-02-09T15:01:52.400Z,49.75
2023-02-09T15:04:19.663Z,50.25
2023-02-09T15:06:46.420Z,50.42
2023-02-09T15:09:13.338Z,50.54
2023-02-09T15:11:42.995Z,50.94
2023-02-09T15:14:10.516Z,50.98
2023-02-09T15:16:37.924Z,51.41
2023-02-09T15:19:04.389Z,52.12
2023-02-09T15:21:33.186Z,52.27
2023-02-09T15:24:00.781Z,52.83
2023-02-09T15:26:37.104Z,53.48
2023-02-09T15:29:05.754Z,53.38
2023-02-09T15:31:33.223Z,53.77
2023-02-09T15:33:59.614Z,53.73
2023-02-09T15:36:25.870Z,53.99
2023-02-09T15:38:52.249Z,54.46
2023-02-09T15:41:18.614Z,54.83
2023-02-09T15:43:45.007Z,54.91
2023-02-09T15:46:11.403Z,55.21
2023-02-09T15:48:37.717Z,55.55
2023-02-09T15:51:04.011Z,55.93
2023-02-09T15:53:30.757Z,55.92
2023-02-09T15:55:58.779Z,56.27
2023-02-09T15:58:23.541Z,56.59
2023-02-09T16:00:49.925Z,57.09
2023-02-09T16:03:16.331Z,57.29
2023-02-09T16:05:43.047Z,57.68
2023-02-09T16:08:11.571Z,57.82
2023-02-09T16:10:38.067Z,57.75
2023-02-09T16:13:04.492Z,58.38
2023-02-09T16:15:33.156Z,58.91
2023-02-09T16:17:59.486Z,59.28
2023-02-09T16:20:26.437Z,59.50
2023-02-09T16:22:52.438Z,60.09
2023-02-09T16:25:18.796Z,60.14
2023-02-09T16:27:45.142Z,60.24
2023-02-09T16:30:13.632Z,60.78
2023-02-09T16:32:40.138Z,61.05
2023-02-09T16:35:16.382Z,60.87
2023-02-09T16:37:32.855Z,60.94
2023-02-09T16:39:59.266Z,61.25
2023-02-09T16:42:25.573Z,61.38
2023-02-09T16:44:51.928Z,61.10
2023-02-09T16:47:18.300Z,61.29
2023-02-09T16:49:44.686Z,61.57
2023-02-09T16:52:11.007Z,61.60
2023-02-09T16:54:37.404Z,61.38
2023-02-09T16:57:03.853Z,61.24
2023-02-09T16:59:30.519Z,61.13
2023-02-09T17:01:58.056Z,61.32
2023-02-09T17:04:24.402Z,61.19
2023-02-09T17:06:50.823Z,61.28
2023-02-09T17:09:17.249Z,61.28
2023-02-09T17:11:43.856Z,61.62
2023-02-09T17:14:10.226Z,61.84
2023-02-09T17:16:36.588Z,61.96
2023-02-09T17:19:02.958Z,62.34
2023-02-09T17:21:29.354Z,62.58
2023-02-09T17:23:56.849Z,62.44
2023-02-09T17:26:23.175Z,62.47
2023-02-09T17:28:49.511Z,62.44
2023-02-09T17:31:17.903Z,62.76
2023-02-09T17:33:44.197Z,62.92
2023-02-09T17:36:25.707Z,63.05
2023-02-09T17:38:37.705Z,63.15
2023-02-09T17:41:04.028Z,63.61
2023-02-09T17:43:31.315Z,64.39
2023-02-09T17:45:57.738Z,64.06
2023-02-09T17:48:24.398Z,64.40
2023-02-09T17:50:53.170Z,64.40
2023-02-09T17:53:19.762Z,64.67
2023-02-09T17:55:46.383Z,64.96
2023-02-09T17:58:12.472Z,65.35
2023-02-09T18:00:38.965Z,65.82
2023-02-09T18:03:05.473Z,66.13
2023-02-09T18:05:31.991Z,66.61
2023-02-09T18:07:58.404Z,66.86
2023-02-09T18:10:24.792Z,67.35
2023-02-09T18:12:53.441Z,67.30
2023-02-09T18:15:19.868Z,67.79
2023-02-09T18:17:49.972Z,67.73
2023-02-09T18:20:16.308Z,67.88
2023-02-09T18:22:42.698Z,68.14
2023-02-09T18:25:09.032Z,68.20
2023-02-09T18:27:35.417Z,68.21
2023-02-09T18:30:01.810Z,68.27
2023-02-09T18:32:28.140Z,68.22
2023-02-09T18:34:54.576Z,68.17
2023-02-09T18:37:21.280Z,68.36
2023-02-09T18:39:47.603Z,68.63
2023-02-09T18:42:13.992Z,69.33
2023-02-09T18:44:40.426Z,70.00
2023-02-09T18:47:06.806Z,70.08
2023-02-09T18:49:33.102Z,70.51
2023-02-09T18:51:59.636Z,70.56
2023-02-09T18:54:28.338Z,70.63
2023-02-09T18:56:53.490Z,70.69
2023-02-09T18:59:19.894Z,70.86
2023-02-09T19:01:46.308Z,70.60
2023-02-09T19:04:12.609Z,70.62
2023-02-09T19:06:38.965Z,70.71
2023-02-09T19:09:05.331Z,70.74
2023-02-09T19:11:32.750Z,71.01
2023-02-09T19:13:59.362Z,71.00
2023-02-09T19:16:25.773Z,71.16
2023-02-09T19:18:52.324Z,71.06
2023-02-09T19:21:18.877Z,71.21
2023-02-09T19:23:45.309Z,71.68
2023-02-09T19:26:11.706Z,71.97
2023-02-09T19:28:38.080Z,72.09
2023-02-09T19:31:04.487Z,72.19
2023-02-09T19:33:30.904Z,72.66
2023-02-09T19:35:57.395Z,72.52
2023-02-09T19:38:23.778Z,72.48
2023-02-09T19:40:52.649Z,72.66
2023-02-09T19:43:16.650Z,72.65
2023-02-09T19:45:43.050Z,72.39
2023-02-09T19:48:09.382Z,72.42
2023-02-09T19:50:35.737Z,72.47
2023-02-09T19:53:02.220Z,72.49
2023-02-09T19:55:28.607Z,72.46
2023-02-09T19:57:54.929Z,72.42
2023-02-09T20:00:21.339Z,72.08
2023-02-09T20:02:48.147Z,71.86
2023-02-09T20:05:14.418Z,72.07
2023-02-09T20:07:40.942Z,71.84
2023-02-09T20:10:07.331Z,71.82
2023-02-09T20:12:33.716Z,71.89
2023-02-09T20:15:00.124Z,71.86
2023-02-09T20:17:26.473Z,72.06
2023-02-09T20:19:52.834Z,72.08
2023-02-09T20:22:19.178Z,72.14
2023-02-09T20:24:45.568Z,72.35
2023-02-09T20:27:11.911Z,72.44
2023-02-09T20:29:38.389Z,72.46
2023-02-09T20:32:04.754Z,72.38
2023-02-09T20:34:31.114Z,72.40
2023-02-09T20:36:57.592Z,72.46
2023-02-09T20:39:24.065Z,72.46
2023-02-09T20:41:50.745Z,72.70
2023-02-09T20:44:17.498Z,72.56
2023-02-09T20:46:43.824Z,72.70
2023-02-09T20:49:10.229Z,72.60
2023-02-09T20:51:36.567Z,72.70
2023-02-09T20:54:02.940Z,72.63
2023-02-09T20:56:29.310Z,72.72
2023-02-09T20:58:55.688Z,72.86
2023-02-09T21:01:22.086Z,73.00
2023-02-09T21:03:48.464Z,72.98
2023-02-09T21:06:15.801Z,73.05
2023-02-09T21:08:42.240Z,72.92
2023-02-09T21:11:08.596Z,73.05
2023-02-09T21:13:35.001Z,72.84
2023-02-09T21:16:03.290Z,72.72
2023-02-09T21:18:28.004Z,72.76
2023-02-09T21:20:54.317Z,72.91
2023-02-09T21:23:20.920Z,72.84
2023-02-09T21:25:47.454Z,72.88
2023-02-09T21:28:13.888Z,73.04
2023-02-09T21:30:40.863Z,73.12
2023-02-09T21:33:06.544Z,73.08
2023-02-09T21:35:32.853Z,73.11
2023-02-09T21:37:59.291Z,73.09
2023-02-09T21:40:25.651Z,73.33
2023-02-09T21:42:52.030Z,73.74
2023-02-09T21:45:18.480Z,73.82
2023-02-09T21:47:45.077Z,73.72
2023-02-09T21:50:11.477Z,73.71
2023-02-09T21:52:37.832Z,73.96
2023-02-09T21:55:04.389Z,73.90
2023-02-09T21:57:30.704Z,73.99
2023-02-09T21:59:57.066Z,73.92
2023-02-09T22:02:23.456Z,73.71
2023-02-09T22:04:49.863Z,73.60
2023-02-09T22:07:16.321Z,73.60
2023-02-09T22:09:42.712Z,73.58
2023-02-09T22:12:09.067Z,73.57
2023-02-09T22:14:35.428Z,73.18
2023-02-09T22:17:01.823Z,73.17
2023-02-09T22:19:28.202Z,73.22
2023-02-09T22:21:54.561Z,73.27
2023-02-09T22:24:20.874Z,72.95
2023-02-09T22:26:47.261Z,72.67
2023-02-09T22:29:13.825Z,72.72
2023-02-09T22:31:40.777Z,72.79
2023-02-09T22:34:07.047Z,72.99
2023-02-09T22:36:33.430Z,72.84
2023-02-09T22:38:59.804Z,72.64
2023-02-09T22:41:26.196Z,72.86
2023-02-09T22:43:52.547Z,72.82
2023-02-09T22:46:18.971Z,72.90
2023-02-09T22:48:45.244Z,72.76
2023-02-09T22:51:11.582Z,72.87
2023-02-09T22:53:37.998Z,72.78
2023-02-09T22:56:04.334Z,72.75
2023-02-09T22:58:30.684Z,72.67
2023-02-09T23:00:57.137Z,72.35
2023-02-09T23:03:23.460Z,72.18
2023-02-09T23:05:49.964Z,72.21
2023-02-09T23:08:16.504Z,72.26
2023-02-09T23:10:42.896Z,72.14
2023-02-09T23:13:09.293Z,72.22
2023-02-09T23:15:35.746Z,72.18
2023-02-09T23:18:02.060Z,71.94
2023-02-09T23:20:28.404Z,71.78
2023-02-09T23:22:54.847Z,71.54
2023-02-09T23:25:21.209Z,71.47
2023-02-09T23:27:47.532Z,71.16
2023-02-09T23:30:13.873Z,71.00
2023-02-09T23:32:40.249Z,70.86
2023-02-09T23:35:06.615Z,70.93
2023-02-09T23:37:39.902Z,70.84
2023-02-09T23:39:59.357Z,70.51
2023-02-09T23:42:25.667Z,70.54
2023-02-09T23:44:52.022Z,70.06
2023-02-09T23:47:18.354Z,69.76
2023-02-09T23:49:44.692Z,69.82
2023-02-09T23:52:11.015Z,69.94
2023-02-09T23:54:37.405Z,69.78
2023-02-09T23:57:03.739Z,69.59
2023-02-09T23:59:30.170Z,69.42
